Minneapolis, MN

11:15 AM CDT on April 25, 2015 (GMT -0500)
Uptown - East Isles | | Change Station
CLOSE
Current Station
Personal Weather Station
Location: Minneapolis, MN
Elevation: 840 ft
Nearby Weather Stations

Elev 840 ft 44.95 °N, 93.30 °W | Updated 16 days ago

Cloudy
Cloudy
52 °F
Feels Like 52 °F
N
13
Wind Variable Wind from East
Gusts 19 mph

Today
High -- | Low -- °F
--% Chance of Precip.
Yesterday
High -- | Low -- °F
Precip. -- in
6:12 AM 8:10 PM
Waxing Crescent, 47% visible
Pressure 29.87 in
Visibility 10.0 miles
Clouds Mostly Cloudy 4400 ft
Mostly Cloudy 8500 ft
Dew Point 36 °F
Humidity 54%
Rainfall in
Snow Depth Not available.
UV 4 out of 12
Pollen 9.20 out of 12
Air Quality Not available.
Flu Activity Local Activity
METAR KMIC 251553Z 11011G18KT 10SM BKN044 BKN085 11/02 A2986 RMK AO2 SLP114 T01060022

More Conditions Fewer Conditions

Pressure 29.87 in
Visibility 10.0 miles
Clouds Mostly Cloudy 4400 ft
Mostly Cloudy 8500 ft
Dew Point 36 °F
Humidity 54%
Rainfall in
Snow Depth Not available.
UV 4 out of 12
Pollen 9.20 out of 12
Air Quality Not available.
Flu Activity Local Activity
METAR KMIC 251553Z 11011G18KT 10SM BKN044 BKN085 11/02 A2986 RMK AO2 SLP114 T01060022

More Conditions Fewer Conditions

10-Day Weather Forecast

Almanac

Astronomy

Apr. 25, 2015 Rise Set
Actual Time
Civil Twilight
Nautical Twilight
Astronomical Twilight
Moon
Length of Visible Light
Length of Day
Tomorrow will be .
, % of the Moon is Illuminated

Today's Extremes

State Highs State Lows

Community

WunderPhotos

Upload Photos

1,816,731 photos uploaded!

WunderBlogs® & News

Nearby

Air Quality

  Air Quality AQ Index Pollutant
Not available.

Snow Depth

Station Depth Elevation

Earthquake Activity

City Distance Mag. Time & Date
Minimum magnitude displayed is 2.5.

Coastal Water Temperatures

Place Temperature

Stations

Nearby Weather Stations

Station Location Temp. Windchill Dew Point Humidity Wind Precip. Elev Updated Type